Time;durP1;ratioP1;P1;durP2;ratioP2;P2;SDS_P1;SDS_P2;PMS_P1;PMS_P2;Temp;Humidity;BMP_temperature;BMP_pressure;BME280_temperature;BME280_humidity;BME280_pressure;Samples;Min_cycle;Max_cycle;Signal;HPM_P1;HPM_P2
2022/11/25 00:01:02;;;;;;;13.15;2.15;;;10.40;99.30;;;;;;5033434;28;20112;-79
2022/11/25 00:03:27;;;;;;;18.77;3.03;;;10.40;99.20;;;;;;5016762;28;20033;-79
2022/11/25 00:05:53;;;;;;;13.43;2.33;;;10.40;99.20;;;;;;5032959;28;20048;-79
2022/11/25 00:08:19;;;;;;;19.38;2.83;;;10.40;99.30;;;;;;5033925;28;20457;-79
2022/11/25 00:10:44;;;;;;;16.25;2.75;;;10.40;99.60;;;;;;5033803;28;20034;-79
2022/11/25 00:13:10;;;;;;;11.98;2.05;;;10.40;99.90;;;;;;5033745;28;20033;-79
2022/11/25 00:15:35;;;;;;;16.27;2.47;;;10.30;99.90;;;;;;5032552;28;20429;-79
2022/11/25 00:18:01;;;;;;;11.98;3.42;;;10.20;99.90;;;;;;5032379;28;20036;-79
2022/11/25 00:20:27;;;;;;;12.70;2.28;;;10.20;99.90;;;;;;5015935;28;20091;-79
2022/11/25 00:22:52;;;;;;;22.48;3.33;;;10.20;99.90;;;;;;5033862;28;20068;-78
2022/11/25 00:25:18;;;;;;;11.85;2.30;;;10.20;99.90;;;;;;5032169;28;20079;-78
2022/11/25 00:27:43;;;;;;;17.58;2.88;;;10.20;99.90;;;;;;5032387;28;20386;-78
2022/11/25 00:30:09;;;;;;;13.00;1.98;;;10.20;99.90;;;;;;5031924;28;20041;-79
2022/11/25 00:32:35;;;;;;;14.55;2.67;;;10.20;99.90;;;;;;5032469;28;20052;-79
2022/11/25 00:35:01;;;;;;;16.08;2.28;;;10.10;99.90;;;;;;4996048;28;20050;-79
2022/11/25 00:37:26;;;;;;;15.95;2.53;;;10.20;99.90;;;;;;5012710;28;20513;-79
2022/11/25 00:39:52;;;;;;;15.27;2.08;;;10.20;99.90;;;;;;5013910;28;20037;-80
2022/11/25 00:45:01;;;;;;;16.13;2.47;;;10.20;99.90;;;;;;5012827;28;20044;-79
2022/11/25 00:47:28;;;;;;;15.23;2.17;;;10.20;99.90;;;;;;5013806;28;20034;-79
2022/11/25 00:49:54;;;;;;;16.48;2.75;;;10.20;99.90;;;;;;5012410;28;20062;-79
2022/11/25 00:52:25;;;;;;;17.20;2.38;;;10.10;99.90;;;;;;5013326;28;20501;-79
2022/11/25 00:54:52;;;;;;;17.52;2.30;;;10.10;99.90;;;;;;5013771;28;20520;-79
2022/11/25 00:57:20;;;;;;;16.05;2.67;;;10.10;99.90;;;;;;5012968;28;20026;-79
2022/11/25 00:59:46;;;;;;;15.02;2.45;;;10.10;99.90;;;;;;5028793;28;20033;-79
2022/11/25 01:02:13;;;;;;;14.13;2.65;;;10.10;99.90;;;;;;5028631;28;20073;-79
2022/11/25 01:04:39;;;;;;;18.13;2.70;;;10.10;99.90;;;;;;5028857;28;20367;-79
2022/11/25 01:07:05;;;;;;;18.30;3.15;;;10.20;99.90;;;;;;5012114;28;20117;-79
2022/11/25 01:09:31;;;;;;;13.05;1.83;;;10.20;99.90;;;;;;5012347;28;20061;-78
2022/11/25 01:11:57;;;;;;;13.35;2.25;;;10.20;99.90;;;;;;5012308;28;20061;-78
2022/11/25 01:14:23;;;;;;;15.93;2.42;;;10.30;99.90;;;;;;5012166;28;20057;-79
2022/11/25 01:16:49;;;;;;;12.60;2.13;;;10.30;99.90;;;;;;5013035;28;20030;-79
2022/11/25 01:19:15;;;;;;;15.85;2.47;;;10.30;99.90;;;;;;5013268;28;20402;-78
2022/11/25 01:21:41;;;;;;;11.57;2.00;;;10.30;99.90;;;;;;5013634;28;20190;-78
2022/11/25 01:24:06;;;;;;;15.25;2.28;;;10.30;99.90;;;;;;5013211;28;20117;-78
2022/11/25 01:26:33;;;;;;;15.93;2.08;;;10.30;99.90;;;;;;5011672;28;20037;-78
2022/11/25 01:29:01;;;;;;;18.70;2.38;;;10.30;99.90;;;;;;5013234;28;20213;-78
2022/11/25 01:31:29;;;;;;;14.35;1.95;;;10.30;99.90;;;;;;5013362;28;20030;-78
2022/11/25 01:34:03;;;;;;;15.00;2.08;;;10.20;99.90;;;;;;5013218;28;20141;-78
2022/11/25 01:36:30;;;;;;;13.40;2.10;;;10.20;99.90;;;;;;5027730;28;20068;-77
2022/11/25 01:38:58;;;;;;;13.82;2.20;;;10.20;99.90;;;;;;5032941;28;20107;-77
2022/11/25 01:41:26;;;;;;;13.30;1.98;;;10.20;99.90;;;;;;5031689;28;20432;-77
2022/11/25 01:44:12;;;;;;;13.32;2.45;;;10.20;99.90;;;;;;5015021;28;20042;-78
2022/11/25 01:46:53;;;;;;;16.27;2.20;;;10.10;99.90;;;;;;5032967;28;20028;-78
2022/11/25 01:49:25;;;;;;;20.83;2.15;;;10.20;99.90;;;;;;5032961;28;20079;-78
2022/11/25 01:52:22;;;;;;;13.38;1.92;;;10.20;99.90;;;;;;5032431;28;20509;-78
2022/11/25 01:55:05;;;;;;;10.48;1.60;;;10.20;99.90;;;;;;5029871;28;20045;-78
2022/11/25 01:57:37;;;;;;;17.38;2.22;;;10.30;99.90;;;;;;5031176;28;20040;-78
2022/11/25 02:00:06;;;;;;;12.50;2.28;;;10.30;99.90;;;;;;5031684;28;20022;-79
2022/11/25 02:02:32;;;;;;;17.85;2.70;;;10.40;99.90;;;;;;5032574;28;20466;-78
2022/11/25 02:05:05;;;;;;;15.35;2.10;;;10.40;99.90;;;;;;5032816;28;20633;-78
2022/11/25 02:07:35;;;;;;;13.10;1.85;;;10.40;99.90;;;;;;5035851;28;20123;-78
2022/11/25 02:10:04;;;;;;;16.08;2.33;;;10.40;99.90;;;;;;5018680;28;20100;-78
2022/11/25 02:12:33;;;;;;;18.23;2.25;;;10.40;99.90;;;;;;5018399;28;20026;-78
2022/11/25 02:14:59;;;;;;;14.52;2.55;;;10.40;99.90;;;;;;5034881;28;20026;-78
2022/11/25 02:17:24;;;;;;;11.73;1.63;;;10.40;99.90;;;;;;5034721;28;20037;-78
2022/11/25 02:20:03;;;;;;;15.95;1.90;;;10.30;99.90;;;;;;5018265;28;20030;-78
2022/11/25 02:22:50;;;;;;;17.98;2.30;;;10.30;99.90;;;;;;5018345;28;20026;-78
2022/11/25 02:25:21;;;;;;;14.60;2.50;;;10.40;99.90;;;;;;5035767;28;20038;-78
2022/11/25 02:27:51;;;;;;;14.55;1.95;;;10.30;99.90;;;;;;5035865;28;20524;-77
2022/11/25 02:30:17;;;;;;;13.05;2.10;;;10.30;99.90;;;;;;5036082;28;20083;-78
2022/11/25 02:32:47;;;;;;;14.27;2.13;;;10.40;99.90;;;;;;5035957;28;20029;-78
2022/11/25 02:35:32;;;;;;;11.95;1.73;;;10.40;99.90;;;;;;5034388;28;20069;-79
2022/11/25 02:38:05;;;;;;;16.88;2.40;;;10.40;99.90;;;;;;5017947;28;20416;-78
2022/11/25 02:40:33;;;;;;;15.63;2.38;;;10.40;99.90;;;;;;5035703;28;20029;-78
2022/11/25 02:42:59;;;;;;;14.68;2.38;;;10.40;99.90;;;;;;5034579;28;20056;-78
2022/11/25 02:45:59;;;;;;;16.65;2.10;;;10.40;99.90;;;;;;5035422;28;20489;-78
2022/11/25 02:48:26;;;;;;;14.27;1.88;;;10.40;99.90;;;;;;5027367;28;20049;-79
2022/11/25 02:50:52;;;;;;;15.48;1.75;;;10.40;99.90;;;;;;5017412;28;20046;-79
2022/11/25 02:53:18;;;;;;;11.85;2.28;;;10.40;99.90;;;;;;5017777;28;20044;-79
2022/11/25 02:55:43;;;;;;;11.98;1.60;;;10.50;99.90;;;;;;5035109;28;20034;-79
2022/11/25 02:58:09;;;;;;;16.13;1.90;;;10.40;99.90;;;;;;5017593;28;20093;-73
2022/11/25 03:00:35;;;;;;;14.20;1.80;;;10.50;99.90;;;;;;5035281;28;20087;-73
2022/11/25 03:03:01;;;;;;;13.25;2.08;;;10.50;99.90;;;;;;5034426;28;20051;-72
2022/11/25 03:05:27;;;;;;;11.82;2.22;;;10.50;99.90;;;;;;5035255;28;20073;-73
2022/11/25 03:07:52;;;;;;;16.95;2.42;;;10.50;99.90;;;;;;5035680;28;20069;-72
2022/11/25 03:10:18;;;;;;;17.42;2.08;;;10.50;99.90;;;;;;5035471;28;20038;-72
2022/11/25 03:12:43;;;;;;;9.70;1.83;;;10.50;99.90;;;;;;5035639;28;20124;-73
2022/11/25 03:15:09;;;;;;;12.35;1.73;;;10.60;99.90;;;;;;5035040;28;20116;-72
2022/11/25 03:17:35;;;;;;;14.68;1.77;;;10.60;99.90;;;;;;5033904;28;20078;-73
2022/11/25 03:20:01;;;;;;;14.23;2.08;;;10.60;99.90;;;;;;5035254;28;20026;-72
2022/11/25 03:22:27;;;;;;;10.20;1.92;;;10.70;99.90;;;;;;5035177;28;20540;-72
2022/11/25 03:24:52;;;;;;;12.65;1.67;;;10.70;99.90;;;;;;5017456;28;20029;-72
2022/11/25 03:27:18;;;;;;;10.00;2.05;;;10.70;99.90;;;;;;5034713;28;20036;-72
2022/11/25 03:29:44;;;;;;;9.93;1.52;;;10.70;99.90;;;;;;5034126;28;20029;-72
2022/11/25 03:32:09;;;;;;;14.93;2.42;;;10.70;99.90;;;;;;5034341;28;20033;-72
2022/11/25 03:34:35;;;;;;;14.18;2.08;;;10.70;99.90;;;;;;5034909;28;20474;-72
2022/11/25 03:37:00;;;;;;;14.50;2.03;;;10.80;99.90;;;;;;5035028;28;20088;-72
2022/11/25 03:39:26;;;;;;;14.90;2.10;;;10.70;99.90;;;;;;5033671;28;20519;-72
2022/11/25 03:41:52;;;;;;;11.48;1.95;;;10.80;99.90;;;;;;5034864;28;20034;-72
2022/11/25 03:44:17;;;;;;;16.20;2.28;;;10.80;99.90;;;;;;5033866;28;20434;-72
2022/11/25 03:46:43;;;;;;;15.30;2.60;;;10.80;99.90;;;;;;5034735;28;20033;-73
2022/11/25 03:49:08;;;;;;;11.93;1.63;;;10.70;99.90;;;;;;5034865;28;20037;-72
2022/11/25 03:51:34;;;;;;;15.38;2.08;;;10.70;99.90;;;;;;5034618;28;20462;-73
2022/11/25 03:53:59;;;;;;;18.00;2.13;;;10.70;99.90;;;;;;5034301;28;20040;-73
2022/11/25 03:56:25;;;;;;;15.73;2.03;;;10.70;99.90;;;;;;5033186;28;20088;-73
2022/11/25 03:58:51;;;;;;;10.63;1.90;;;10.70;99.90;;;;;;5034516;28;20033;-73
2022/11/25 04:01:16;;;;;;;10.40;2.05;;;10.70;99.90;;;;;;5034113;28;20117;-73
2022/11/25 04:03:42;;;;;;;11.25;1.80;;;10.70;99.90;;;;;;5033212;28;20021;-73
2022/11/25 04:06:08;;;;;;;12.68;1.95;;;10.80;99.90;;;;;;5016438;28;20037;-73
2022/11/25 04:08:33;;;;;;;16.27;2.55;;;10.80;99.90;;;;;;5034206;28;20032;-73
2022/11/25 04:10:59;;;;;;;12.13;2.17;;;10.90;99.90;;;;;;5033982;28;20038;-73
2022/11/25 04:13:24;;;;;;;10.77;2.17;;;10.90;99.90;;;;;;5034514;28;20263;-70
2022/11/25 04:15:50;;;;;;;12.27;1.90;;;10.90;99.90;;;;;;5033221;28;20044;-73
2022/11/25 04:18:17;;;;;;;12.68;1.85;;;10.90;99.90;;;;;;5034147;28;20354;-73
2022/11/25 04:20:43;;;;;;;16.02;2.33;;;10.90;99.90;;;;;;5034109;28;20040;-73
2022/11/25 04:23:10;;;;;;;18.30;2.30;;;10.90;99.90;;;;;;5034449;28;20027;-73
2022/11/25 04:25:37;;;;;;;11.00;1.77;;;10.90;99.90;;;;;;5016218;28;20033;-73
2022/11/25 04:28:03;;;;;;;12.60;2.35;;;10.90;99.90;;;;;;5016166;28;20416;-73
2022/11/25 04:30:29;;;;;;;13.27;2.42;;;10.90;99.90;;;;;;5033457;28;20029;-73
2022/11/25 04:32:55;;;;;;;15.52;2.00;;;10.90;99.90;;;;;;5032433;28;20037;-73
2022/11/25 04:35:21;;;;;;;15.15;1.80;;;10.90;99.90;;;;;;5033509;28;20050;-73
2022/11/25 04:37:46;;;;;;;8.95;1.27;;;10.80;99.90;;;;;;5032908;28;20029;-73
2022/11/25 04:40:12;;;;;;;11.85;1.83;;;10.80;99.90;;;;;;5033590;28;20449;-73
2022/11/25 04:42:38;;;;;;;7.45;1.30;;;10.80;99.90;;;;;;5033508;28;20385;-73
2022/11/25 04:45:14;;;;;;;12.10;1.88;;;10.80;99.90;;;;;;5033823;28;20025;-73
2022/11/25 04:47:40;;;;;;;15.95;3.40;;;10.90;99.90;;;;;;5033750;28;20053;-73
2022/11/25 04:50:11;;;;;;;11.50;1.83;;;10.90;99.90;;;;;;5033722;28;20044;-73
2022/11/25 04:52:37;;;;;;;11.10;1.73;;;10.90;99.90;;;;;;5034009;28;20377;-73
2022/11/25 04:55:03;;;;;;;8.05;1.30;;;10.90;99.90;;;;;;5033952;28;20033;-73
2022/11/25 04:57:28;;;;;;;8.57;1.45;;;10.90;99.90;;;;;;5033730;28;20032;-73
2022/11/25 04:59:54;;;;;;;13.88;2.10;;;10.90;99.90;;;;;;5015904;28;20355;-73
2022/11/25 05:02:25;;;;;;;17.60;1.88;;;10.90;99.90;;;;;;5033898;28;20072;-73
2022/11/25 05:04:53;;;;;;;9.57;1.40;;;10.90;99.90;;;;;;5033268;28;20430;-73
2022/11/25 05:07:21;;;;;;;11.50;1.52;;;10.90;99.90;;;;;;5033485;28;20033;-73
2022/11/25 05:09:47;;;;;;;6.85;1.02;;;10.90;99.90;;;;;;5032413;28;20381;-73
2022/11/25 05:12:16;;;;;;;11.43;1.40;;;10.90;99.90;;;;;;5033479;28;20025;-73
2022/11/25 05:14:42;;;;;;;8.40;1.60;;;10.90;99.90;;;;;;5016006;28;20446;-73
2022/11/25 05:17:13;;;;;;;10.20;2.05;;;11.00;99.90;;;;;;5015983;28;20029;-74
2022/11/25 05:19:38;;;;;;;14.02;2.03;;;11.00;99.90;;;;;;5033350;28;20044;-72
2022/11/25 05:22:04;;;;;;;11.07;1.42;;;11.00;99.90;;;;;;5033132;28;20128;-73
2022/11/25 05:24:30;;;;;;;12.52;1.75;;;11.00;99.90;;;;;;5033345;28;20096;-73
2022/11/25 05:26:55;;;;;;;11.68;1.92;;;11.00;99.90;;;;;;5033008;28;20151;-72
2022/11/25 05:29:21;;;;;;;11.23;2.10;;;11.00;99.90;;;;;;5032028;28;20033;-73
2022/11/25 05:31:47;;;;;;;6.47;1.70;;;11.00;99.90;;;;;;5032774;28;20036;-73
2022/11/25 05:34:12;;;;;;;10.52;1.48;;;11.10;99.90;;;;;;5033312;28;20104;-73
2022/11/25 05:36:38;;;;;;;10.35;1.80;;;11.10;99.90;;;;;;5031276;28;20065;-73
2022/11/25 05:39:04;;;;;;;12.82;2.35;;;11.10;99.90;;;;;;5032979;28;20033;-73
2022/11/25 05:41:29;;;;;;;7.07;1.70;;;11.10;99.90;;;;;;5034758;28;20029;-73
2022/11/25 05:43:56;;;;;;;11.32;2.25;;;11.10;99.90;;;;;;5037276;28;20037;-73
2022/11/25 05:46:21;;;;;;;11.30;2.88;;;11.10;99.90;;;;;;5037283;28;20033;-73
2022/11/25 05:48:47;;;;;;;9.77;1.92;;;11.10;99.90;;;;;;5037164;28;20037;-72
2022/11/25 05:51:13;;;;;;;9.45;2.10;;;11.10;99.90;;;;;;5019230;28;20061;-73
2022/11/25 05:53:38;;;;;;;10.07;2.28;;;11.10;99.90;;;;;;5036913;28;20112;-72
2022/11/25 05:56:05;;;;;;;11.43;2.03;;;11.10;99.90;;;;;;5035811;28;20026;-71
2022/11/25 05:58:32;;;;;;;11.00;2.67;;;11.10;99.90;;;;;;5036770;28;20061;-70
2022/11/25 06:00:58;;;;;;;13.00;2.75;;;11.10;99.90;;;;;;5036686;28;20108;-73
2022/11/25 06:03:24;;;;;;;10.65;2.08;;;11.10;99.90;;;;;;5036930;28;20025;-70
2022/11/25 06:05:50;;;;;;;10.73;1.70;;;11.20;99.90;;;;;;5036629;28;20040;-70
2022/11/25 06:08:16;;;;;;;13.23;2.75;;;11.10;99.90;;;;;;5036213;28;20041;-70
2022/11/25 06:10:41;;;;;;;10.13;2.30;;;11.10;99.90;;;;;;5036502;28;20030;-70
2022/11/25 06:13:08;;;;;;;12.13;2.42;;;11.10;99.90;;;;;;5035423;28;20389;-70
2022/11/25 06:15:38;;;;;;;6.63;1.70;;;11.10;99.90;;;;;;5036176;28;20370;-70
2022/11/25 06:18:04;;;;;;;10.90;1.58;;;11.10;99.90;;;;;;5036488;28;20060;-70
2022/11/25 06:20:30;;;;;;;10.15;1.42;;;11.10;99.90;;;;;;5036142;28;20033;-71
2022/11/25 06:22:57;;;;;;;8.90;1.88;;;11.10;99.90;;;;;;5035512;28;20112;-71
2022/11/25 06:25:23;;;;;;;7.30;1.17;;;11.10;99.90;;;;;;5036154;28;20037;-71
2022/11/25 06:27:48;;;;;;;9.18;0.90;;;11.00;99.90;;;;;;5034733;28;20032;-70
2022/11/25 06:30:14;;;;;;;9.13;1.80;;;11.00;99.90;;;;;;5035919;28;20029;-71
2022/11/25 06:32:40;;;;;;;6.13;1.80;;;11.00;99.90;;;;;;5018729;28;20060;-71
2022/11/25 06:35:06;;;;;;;6.07;1.80;;;11.00;99.90;;;;;;5035879;28;20026;-70
2022/11/25 06:37:32;;;;;;;7.93;1.50;;;11.00;99.90;;;;;;5036123;28;20032;-71
2022/11/25 06:39:58;;;;;;;6.82;1.55;;;11.10;99.90;;;;;;5035994;28;20028;-71
2022/11/25 06:42:23;;;;;;;5.93;1.20;;;11.10;99.90;;;;;;5018300;28;20021;-71
2022/11/25 06:44:49;;;;;;;6.47;1.48;;;11.10;99.90;;;;;;5035401;28;20033;-71
2022/11/25 06:47:15;;;;;;;7.18;1.42;;;11.20;99.90;;;;;;5035817;28;20425;-71
2022/11/25 06:49:40;;;;;;;8.32;1.40;;;11.20;99.90;;;;;;5034555;28;20200;-70
2022/11/25 06:52:06;;;;;;;6.30;1.25;;;11.20;99.90;;;;;;5034318;28;20053;-71
2022/11/25 06:54:32;;;;;;;6.60;1.10;;;11.20;99.90;;;;;;5035556;28;20036;-71
2022/11/25 06:56:58;;;;;;;6.47;1.55;;;11.20;99.90;;;;;;5035915;28;20030;-73
2022/11/25 06:59:24;;;;;;;5.20;1.10;;;11.20;99.90;;;;;;5035794;28;20492;-74
2022/11/25 07:01:49;;;;;;;4.60;1.02;;;11.30;99.90;;;;;;5035112;28;20393;-75
2022/11/25 07:04:15;;;;;;;5.93;1.10;;;11.30;99.90;;;;;;5017732;28;20429;-76
2022/11/25 07:06:40;;;;;;;8.50;1.52;;;11.30;99.90;;;;;;5035939;28;20055;-78
2022/11/25 07:09:06;;;;;;;5.47;1.13;;;11.30;99.90;;;;;;5035232;28;20037;-78
2022/11/25 07:11:38;;;;;;;8.60;1.20;;;11.20;99.90;;;;;;5033977;28;20037;-76
2022/11/25 07:14:10;;;;;;;7.07;1.17;;;11.30;99.90;;;;;;5035232;28;20025;-77
2022/11/25 07:16:38;;;;;;;6.55;1.30;;;11.20;99.90;;;;;;5035273;28;20402;-76
2022/11/25 07:19:04;;;;;;;4.93;0.65;;;11.20;99.90;;;;;;5017636;28;20041;-76
2022/11/25 07:21:31;;;;;;;5.60;0.90;;;11.20;99.90;;;;;;5035256;28;20036;-78
2022/11/25 07:23:59;;;;;;;5.45;0.93;;;11.20;99.90;;;;;;5017145;28;20025;-78
2022/11/25 07:26:28;;;;;;;7.70;1.00;;;11.20;99.90;;;;;;5034523;28;20502;-78
2022/11/25 07:28:57;;;;;;;3.92;0.82;;;11.20;99.90;;;;;;5017258;28;20087;-77
2022/11/25 07:31:25;;;;;;;5.75;1.05;;;11.20;99.90;;;;;;5035287;28;20030;-78
2022/11/25 07:33:52;;;;;;;5.72;1.40;;;11.20;99.90;;;;;;5034999;28;20026;-78
2022/11/25 07:36:18;;;;;;;6.18;0.90;;;11.20;99.90;;;;;;5034744;28;20045;-77
2022/11/25 07:38:44;;;;;;;5.55;0.98;;;11.20;99.90;;;;;;5017008;28;20049;-78
2022/11/25 07:41:13;;;;;;;3.78;1.30;;;11.20;99.90;;;;;;5035002;28;20076;-78
2022/11/25 07:43:39;;;;;;;6.47;1.30;;;11.20;99.90;;;;;;5035025;28;20120;-76
2022/11/25 07:46:22;;;;;;;5.82;0.80;;;11.20;99.90;;;;;;5034727;28;20049;-76
2022/11/25 07:48:48;;;;;;;4.18;0.70;;;11.20;99.90;;;;;;5034751;28;20037;-77
2022/11/25 07:51:26;;;;;;;6.05;1.02;;;11.20;99.90;;;;;;5017481;28;20422;-77
2022/11/25 07:53:56;;;;;;;6.38;0.73;;;11.20;99.90;;;;;;5017945;28;20139;-75
2022/11/25 07:56:23;;;;;;;5.38;1.05;;;11.20;99.90;;;;;;5034421;28;20033;-76
2022/11/25 07:58:49;;;;;;;4.07;0.90;;;11.20;99.90;;;;;;5034538;28;20104;-77
2022/11/25 08:01:17;;;;;;;5.05;0.75;;;11.20;99.90;;;;;;5034469;28;20026;-77
2022/11/25 08:03:44;;;;;;;7.43;1.23;;;11.20;99.90;;;;;;5033795;28;20041;-76
2022/11/25 08:06:14;;;;;;;6.93;1.00;;;11.20;99.90;;;;;;5033488;28;20033;-74
2022/11/25 08:08:41;;;;;;;4.85;1.48;;;11.20;99.90;;;;;;5034240;28;20466;-76
2022/11/25 08:11:15;;;;;;;7.93;2.05;;;11.30;99.90;;;;;;5034821;28;20030;-76
2022/11/25 08:13:41;;;;;;;7.80;1.58;;;11.30;99.90;;;;;;5034233;28;20021;-76
2022/11/25 08:16:07;;;;;;;9.10;1.90;;;11.20;99.90;;;;;;5032914;28;20030;-76
2022/11/25 08:18:34;;;;;;;5.07;1.20;;;11.20;99.90;;;;;;5033884;28;20466;-77
2022/11/25 08:21:03;;;;;;;5.00;1.10;;;11.20;99.90;;;;;;5016999;28;20025;-76
2022/11/25 08:23:30;;;;;;;4.47;0.90;;;11.20;99.90;;;;;;5016378;28;20053;-75
2022/11/25 08:25:55;;;;;;;4.97;1.42;;;11.20;99.90;;;;;;5034036;28;20083;-76
2022/11/25 08:28:21;;;;;;;5.45;1.10;;;11.20;99.90;;;;;;5033880;28;20040;-76
2022/11/25 08:30:47;;;;;;;6.10;1.10;;;11.30;99.90;;;;;;5033629;28;20030;-76
2022/11/25 08:33:13;;;;;;;6.43;1.30;;;11.30;99.90;;;;;;5033522;28;20034;-76
2022/11/25 08:35:38;;;;;;;8.43;1.88;;;11.30;99.90;;;;;;5033541;28;20480;-75
2022/11/25 08:38:10;;;;;;;4.50;1.25;;;11.30;99.90;;;;;;5016174;28;20037;-75
2022/11/25 08:40:36;;;;;;;7.65;1.52;;;11.30;99.90;;;;;;5033529;28;20425;-75
2022/11/25 08:43:03;;;;;;;5.78;1.38;;;11.30;99.90;;;;;;5015856;28;20057;-76
2022/11/25 08:45:29;;;;;;;5.53;1.33;;;11.30;99.90;;;;;;5032324;28;20096;-76
2022/11/25 08:47:55;;;;;;;5.93;1.20;;;11.30;99.90;;;;;;5033459;28;20057;-75
2022/11/25 08:50:23;;;;;;;7.00;1.40;;;11.40;99.90;;;;;;5015819;28;20037;-76
2022/11/25 08:52:49;;;;;;;7.47;1.50;;;11.40;99.90;;;;;;5015754;28;20033;-77
2022/11/25 08:55:15;;;;;;;6.95;1.00;;;11.40;99.90;;;;;;5033627;28;20026;-77
2022/11/25 08:57:41;;;;;;;6.40;1.42;;;11.40;99.90;;;;;;5032328;28;20145;-77
2022/11/25 09:00:08;;;;;;;6.85;1.42;;;11.30;99.90;;;;;;5032726;28;20105;-77
2022/11/25 09:02:33;;;;;;;8.02;1.30;;;11.40;99.90;;;;;;5015867;28;20051;-76
2022/11/25 09:04:59;;;;;;;4.43;1.02;;;11.40;99.90;;;;;;5034120;28;20108;-75
2022/11/25 09:07:25;;;;;;;7.10;1.52;;;11.40;99.90;;;;;;5016041;28;20466;-79
2022/11/25 09:09:50;;;;;;;6.22;1.60;;;11.40;99.90;;;;;;5032054;28;20057;-76
2022/11/25 09:12:16;;;;;;;7.65;1.55;;;11.40;99.90;;;;;;5033514;28;20041;-75
2022/11/25 09:14:41;;;;;;;7.45;1.70;;;11.40;99.90;;;;;;5015978;28;20514;-76
2022/11/25 09:17:09;;;;;;;7.20;1.70;;;11.40;99.90;;;;;;5035242;28;20382;-75
2022/11/25 09:19:34;;;;;;;7.07;1.73;;;11.40;99.90;;;;;;5037489;28;20029;-74
2022/11/25 09:22:01;;;;;;;8.07;1.83;;;11.40;99.90;;;;;;5036526;28;20105;-74
2022/11/25 09:24:26;;;;;;;8.63;1.48;;;11.40;99.90;;;;;;5037433;28;20048;-75
2022/11/25 09:26:53;;;;;;;5.97;1.45;;;11.30;99.90;;;;;;5020104;28;20025;-75
2022/11/25 09:29:19;;;;;;;6.63;1.30;;;11.30;99.90;;;;;;5037486;28;20030;-76
2022/11/25 09:31:45;;;;;;;7.75;1.45;;;11.30;99.90;;;;;;5037611;28;20025;-75
2022/11/25 09:34:10;;;;;;;7.63;1.38;;;11.30;99.90;;;;;;5037605;28;20067;-75
2022/11/25 09:36:36;;;;;;;6.40;1.30;;;11.40;99.90;;;;;;5032939;28;20196;-75
2022/11/25 09:39:02;;;;;;;10.48;2.38;;;11.40;99.90;;;;;;5016378;28;20474;-75
2022/11/25 09:47:59;;;;;;;7.80;1.60;;;11.40;99.90;;;;;;5017093;28;20088;-74
2022/11/25 09:50:57;;;;;;;8.90;1.40;;;11.40;99.90;;;;;;5016975;28;20033;-75
2022/11/25 09:53:35;;;;;;;6.25;1.42;;;11.40;99.90;;;;;;5017256;28;20101;-75
2022/11/25 09:56:10;;;;;;;5.88;1.42;;;11.40;99.90;;;;;;5017187;28;20030;-75
2022/11/25 09:58:44;;;;;;;6.80;1.67;;;11.40;99.90;;;;;;5017002;28;20060;-75
2022/11/25 10:01:19;;;;;;;10.13;2.45;;;11.40;99.90;;;;;;5015489;28;20076;-77
2022/11/25 10:04:09;;;;;;;6.88;1.38;;;11.30;99.90;;;;;;5016650;28;20562;-76
2022/11/25 10:06:47;;;;;;;7.75;2.15;;;11.30;99.90;;;;;;5032420;28;20036;-74
2022/11/25 10:09:17;;;;;;;9.13;1.85;;;11.30;99.90;;;;;;5016820;28;20143;-79
2022/11/25 10:11:50;;;;;;;8.10;1.80;;;11.40;99.90;;;;;;5016374;28;20105;-77
2022/11/25 10:14:33;;;;;;;8.90;1.70;;;11.40;99.90;;;;;;5016718;28;20040;-80
2022/11/25 10:17:17;;;;;;;;;;;11.40;99.90;;;;;;5032765;28;20355;-79
2022/11/25 10:19:59;;;;;;;9.73;2.42;;;11.50;99.90;;;;;;5016734;28;19905;-77
2022/11/25 10:22:37;;;;;;;6.72;2.13;;;11.60;99.90;;;;;;5016204;28;20034;-78
2022/11/25 10:25:19;;;;;;;11.88;2.80;;;11.60;99.90;;;;;;5016788;28;20025;-78
2022/11/25 10:28:19;;;;;;;10.18;2.17;;;11.60;99.90;;;;;;5016332;28;20022;-78
2022/11/25 10:30:58;;;;;;;9.68;2.78;;;11.70;99.90;;;;;;5015987;28;20091;-79
2022/11/25 10:33:36;;;;;;;13.52;3.00;;;11.70;99.90;;;;;;5031896;28;20470;-80
2022/11/25 10:36:23;;;;;;;8.60;2.88;;;11.70;99.90;;;;;;5024998;28;20076;-79
2022/11/25 10:39:16;;;;;;;9.10;2.75;;;11.80;99.90;;;;;;5036359;28;20033;-79
2022/11/25 10:42:05;;;;;;;11.70;3.60;;;11.80;99.90;;;;;;5018679;28;20029;-79
2022/11/25 10:44:31;;;;;;;10.45;2.83;;;11.80;99.90;;;;;;5019047;28;20068;-77
2022/11/25 10:47:24;;;;;;;8.50;3.17;;;11.80;99.90;;;;;;5035840;28;20025;-77
2022/11/25 10:50:07;;;;;;;11.95;2.88;;;11.80;99.90;;;;;;5034099;28;20030;-77
2022/11/25 10:52:56;;;;;;;12.05;3.25;;;11.90;99.90;;;;;;5035915;28;20026;-78
2022/11/25 10:55:25;;;;;;;9.35;2.85;;;11.90;99.90;;;;;;5035712;28;20474;-77
2022/11/25 10:57:54;;;;;;;9.48;2.90;;;11.90;99.90;;;;;;5036481;28;20107;-78
2022/11/25 11:00:23;;;;;;;11.02;3.05;;;11.90;99.90;;;;;;5018712;28;20080;-78
2022/11/25 11:02:49;;;;;;;11.50;2.70;;;12.00;99.90;;;;;;5035674;28;20030;-77
2022/11/25 11:05:25;;;;;;;8.10;2.60;;;12.00;99.90;;;;;;5034319;28;20033;-78
2022/11/25 11:08:35;;;;;;;11.52;2.60;;;12.00;99.90;;;;;;5018342;28;20022;-77
2022/11/25 11:11:17;;;;;;;11.27;2.88;;;12.10;99.90;;;;;;4973934;28;20035;-78
2022/11/25 11:13:44;;;;;;;10.83;2.90;;;12.00;99.90;;;;;;5031591;28;20033;-78
2022/11/25 11:16:33;;;;;;;8.80;2.20;;;12.10;99.90;;;;;;5034105;28;20056;-77
2022/11/25 11:18:59;;;;;;;12.02;2.45;;;12.10;99.90;;;;;;5035408;28;20513;-73
2022/11/25 11:21:34;;;;;;;11.45;2.88;;;12.10;99.90;;;;;;5034806;28;20107;-74
2022/11/25 11:24:01;;;;;;;10.07;2.30;;;12.20;99.90;;;;;;5035017;28;20022;-74
2022/11/25 11:26:31;;;;;;;8.80;2.78;;;12.20;99.90;;;;;;5034848;28;20088;-76
2022/11/25 11:29:20;;;;;;;10.60;2.90;;;12.10;99.90;;;;;;5035007;28;20060;-76
2022/11/25 11:31:57;;;;;;;10.23;2.80;;;12.20;99.80;;;;;;5017883;28;20048;-76
2022/11/25 11:34:43;;;;;;;9.88;2.42;;;12.20;99.80;;;;;;5034734;28;20462;-75
2022/11/25 11:37:27;;;;;;;9.15;2.22;;;12.20;99.80;;;;;;5035384;28;20056;-77
2022/11/25 11:39:59;;;;;;;14.20;2.90;;;12.20;99.60;;;;;;5034360;28;20142;-78
2022/11/25 11:42:47;;;;;;;8.95;2.08;;;12.30;99.30;;;;;;5034478;28;20025;-75
2022/11/25 11:45:27;;;;;;;11.10;2.20;;;12.30;99.40;;;;;;5034832;28;20119;-79
2022/11/25 11:48:09;;;;;;;11.73;2.28;;;12.30;99.30;;;;;;5034360;28;20025;-79
2022/11/25 11:50:58;;;;;;;11.73;2.35;;;12.40;99.30;;;;;;5034889;28;20026;-79
2022/11/25 11:53:37;;;;;;;8.48;1.85;;;12.40;99.40;;;;;;5034688;28;20025;-77
2022/11/25 11:56:18;;;;;;;12.68;2.17;;;12.40;99.40;;;;;;5034771;28;20083;-76
2022/11/25 11:59:08;;;;;;;12.10;2.47;;;12.50;99.30;;;;;;5034909;28;20029;-77
2022/11/25 12:01:42;;;;;;;7.20;1.60;;;12.50;99.10;;;;;;5034151;28;20500;-77
2022/11/25 12:04:15;;;;;;;9.48;1.92;;;12.60;99.30;;;;;;5034039;28;20080;-76
2022/11/25 12:06:44;;;;;;;13.02;2.30;;;12.60;99.40;;;;;;5034312;28;20466;-78
2022/11/25 12:09:17;;;;;;;12.85;1.90;;;12.70;99.10;;;;;;5034171;28;20033;-78
2022/11/25 12:11:50;;;;;;;9.10;2.22;;;12.60;98.80;;;;;;5034645;28;20025;-77
2022/11/25 12:14:42;;;;;;;11.48;2.20;;;12.60;98.70;;;;;;5034197;28;20481;-75
2022/11/25 12:17:17;;;;;;;9.40;2.00;;;12.60;98.30;;;;;;5033940;28;20052;-77
2022/11/25 12:19:49;;;;;;;8.05;1.90;;;12.50;98.50;;;;;;5034460;28;20021;-77
2022/11/25 12:22:33;;;;;;;10.20;1.75;;;12.50;98.80;;;;;;5034156;28;20071;-77
2022/11/25 12:25:14;;;;;;;11.57;1.95;;;12.50;98.90;;;;;;5033932;28;20034;-76
2022/11/25 12:28:13;;;;;;;8.68;1.88;;;12.50;98.80;;;;;;5033928;28;20022;-77
2022/11/25 12:31:03;;;;;;;10.20;2.47;;;12.40;98.80;;;;;;5025710;28;20393;-77
2022/11/25 12:33:45;;;;;;;8.95;2.00;;;12.50;98.80;;;;;;5033976;28;20377;-76
2022/11/25 12:36:33;;;;;;;10.73;2.23;;;12.50;98.90;;;;;;5034081;28;20055;-77
2022/11/25 12:39:01;;;;;;;12.05;1.80;;;12.60;98.90;;;;;;5025585;28;20273;-77
2022/11/25 12:41:29;;;;;;;11.63;1.88;;;12.60;98.80;;;;;;5033790;28;20033;-77
2022/11/25 12:44:13;;;;;;;12.77;2.70;;;12.60;98.30;;;;;;5033802;28;20036;-77
2022/11/25 12:46:47;;;;;;;12.05;2.00;;;12.60;98.20;;;;;;5032393;28;20032;-77
2022/11/25 12:49:21;;;;;;;9.88;1.83;;;12.60;98.30;;;;;;5033923;28;20032;-76
2022/11/25 12:52:21;;;;;;;10.52;1.92;;;12.60;98.50;;;;;;5032058;28;20037;-76
2022/11/25 12:55:08;;;;;;;8.10;1.20;;;12.70;98.50;;;;;;5033871;28;20026;-76
2022/11/25 12:57:55;;;;;;;15.02;1.98;;;12.80;98.60;;;;;;5032070;28;20033;-76
2022/11/25 13:00:23;;;;;;;12.90;2.22;;;12.90;98.50;;;;;;5033292;28;20021;-76
2022/11/25 13:02:58;;;;;;;17.17;2.40;;;12.90;98.30;;;;;;5032749;28;20057;-76
2022/11/25 13:05:23;;;;;;;9.77;2.10;;;12.90;98.30;;;;;;5033239;28;20025;-77